16h35 EST


 

Suivi/Infos de l'aéroport


-ou-


 

Suivi des vols en temps réel9Y-TTC ✈ 01-05-2013 ✈ TTCP / TAB - TTPP / POS

Thumbnail
9Y-TTC / BWA1541
Unknown Owner · Trinidad & Tobago
Crown Point ( – info)
Scarborough, Tobago TT
Piarco Int'l ( – info)
Port-d'Espagne TT
Prévu: 21h45 AST
Prévu: 21h50 AST
Durée: 18 minutes
mercredi, 1 mai 2013
Statut Arrivé il y a plus d'un an. (journal de vol & graphique)
Avion Aerospatiale ATR-42-300 (bi-turbopropulseur) (AT43 – photos)
Vitesse Plan de vol: 532 kts (graphique)
Distance En ligne droite 83 km
Une partie au moins de ce vol se déroule hors de la zone de services primaire de FlightAware. Pour en savoir plus sur la couverture et la zone de services de FlightAware.
JOURNAL DE L'ACTIVITE
Vous voulez une recherche complète sur l'historique de 9Y-TTC depuis 1998? Achetez maintenant. Recevez-le dans l'heure.
Date Avion Provenance Destination Départ Arrivée Durée
22-12-2014 AT72Crown Point ()Piarco Int'l () 16h21 AST 16h39 AST 0:18
22-12-2014 AT72Piarco Int'l ()Crown Point () 15h28 AST 15h47 AST 0:19
22-12-2014 AT72Crown Point ()Piarco Int'l () 13h39 AST 13h58 AST 0:19
22-12-2014 AT72Piarco Int'l ()Crown Point () 12h29 AST 12h44 AST 0:14
22-12-2014 AT72Crown Point ()Piarco Int'l () 11h36 AST 11h42 AST 0:05
22-12-2014 AT72Piarco Int'l ()Crown Point () 10h28 AST 10h44 AST 0:15
22-12-2014 AT72Crown Point ()Piarco Int'l () 09h07 AST 09h29 AST 0:22
22-12-2014 AT72Piarco Int'l ()Crown Point () 08h11 AST 08h26 AST 0:14
22-12-2014 AT72Crown Point ()Piarco Int'l () 07h10 AST 07h29 AST 0:19
22-12-2014 AT72Piarco Int'l ()Crown Point () 06h19 AST 06h35 AST 0:15
21-12-2014 AT72Crown Point ()Piarco Int'l () 22h06 AST 22h23 AST 0:17
21-12-2014 AT72Piarco Int'l ()Crown Point () 20h59 AST 21h15 AST 0:15
21-12-2014 AT72Crown Point ()Piarco Int'l () 19h57 AST 20h01 AST 0:04
21-12-2014 AT72Piarco Int'l ()Crown Point () 18h49 AST 19h06 AST 0:17
21-12-2014 AT72Crown Point ()Piarco Int'l () 17h42 AST 18h03 AST 0:21
21-12-2014 AT72Piarco Int'l ()Crown Point () 16h51 AST 17h08 AST 0:17
21-12-2014 AT72Crown Point ()Piarco Int'l () 15h37 AST 16h04 AST 0:27
21-12-2014 AT72Piarco Int'l ()Crown Point () 14h37 AST 14h53 AST 0:15
21-12-2014 AT72Crown Point ()Piarco Int'l () 13h02 AST 13h18 AST 0:16
21-12-2014 AT72Piarco Int'l ()Crown Point () 12h12 AST 12h26 AST 0:13
21-12-2014 AT72Crown Point ()Piarco Int'l () 11h10 AST 11h32 AST 0:22
21-12-2014 AT72Piarco Int'l ()Crown Point () 10h12 AST 10h29 AST 0:17
21-12-2014 AT72Crown Point ()Piarco Int'l () 08h59 AST 09h15 AST 0:16
21-12-2014 AT72Piarco Int'l ()Crown Point () 08h12 AST 08h26 AST 0:13
21-12-2014 AT72Crown Point ()Piarco Int'l () 07h07 AST 07h27 AST 0:20
21-12-2014 AT72Piarco Int'l ()Crown Point () 06h17 AST 06h32 AST 0:14
21-12-2014 AT72Crown Point ()Piarco Int'l () 01h32 AST 01h45 AST 0:13
21-12-2014 AT72Piarco Int'l ()Crown Point () 00h46 AST 01h01 AST 0:14
20-12-2014 AT72Crown Point ()Piarco Int'l () 23h31 AST 23h47 AST 0:16
20-12-2014 AT72Piarco Int'l ()Crown Point () 22h38 AST 22h55 AST 0:17
20-12-2014 AT72Crown Point ()Piarco Int'l () 21h35 AST 21h52 AST 0:17
20-12-2014 AT72Piarco Int'l ()Crown Point () 20h44 AST 21h02 AST 0:18
20-12-2014 AT72Crown Point ()Piarco Int'l () 19h29 AST 19h47 AST 0:18
20-12-2014 AT72Piarco Int'l ()Crown Point () 18h37 AST 18h52 AST 0:14
20-12-2014 AT72Crown Point ()Piarco Int'l () 17h38 AST 17h48 AST 0:10
20-12-2014 AT72Piarco Int'l ()Crown Point () 16h39 AST 16h54 AST 0:14
20-12-2014 AT72Crown Point ()Piarco Int'l () 15h31 AST 15h48 AST 0:17
20-12-2014 AT72Piarco Int'l ()Crown Point () 14h40 AST 14h55 AST 0:14
20-12-2014 AT72Crown Point ()Piarco Int'l () 13h22 AST 13h43 AST 0:21
20-12-2014 AT72Piarco Int'l ()Crown Point () 12h33 AST 12h50 AST 0:17
20-12-2014 AT72Crown Point ()Piarco Int'l () 11h32 AST 11h51 AST 0:19
20-12-2014 AT72Piarco Int'l ()Crown Point () 10h37 AST 10h55 AST 0:18
20-12-2014 AT72Crown Point ()Piarco Int'l () 09h28 AST 09h50 AST 0:22
20-12-2014 AT72Piarco Int'l ()Crown Point () 08h32 AST 08h50 AST 0:18
20-12-2014 AT72Crown Point ()Piarco Int'l () 07h30 AST 07h49 AST 0:19
20-12-2014 AT72Piarco Int'l ()Crown Point () 06h29 AST 06h54 AST 0:25
20-12-2014 AT72Crown Point ()Piarco Int'l () 02h38 AST 02h53 AST 0:15
20-12-2014 AT72Piarco Int'l ()Crown Point () 01h51 AST 02h07 AST 0:15
20-12-2014 AT72Crown Point ()Piarco Int'l () 00h31 AST 00h48 AST 0:17
19-12-2014 AT72Piarco Int'l ()Crown Point () 23h41 AST 23h57 AST 0:15
19-12-2014 AT72Crown Point ()Piarco Int'l () 22h21 AST 22h42 AST 0:21
19-12-2014 AT72Piarco Int'l ()Crown Point () 21h30 AST 21h46 AST 0:15
19-12-2014 AT72Crown Point ()Piarco Int'l () 20h17 AST 20h35 AST 0:18
19-12-2014 AT72Piarco Int'l ()Crown Point () 19h29 AST 19h45 AST 0:15
19-12-2014 AT72Crown Point ()Piarco Int'l () 18h22 AST 18h41 AST 0:19
19-12-2014 AT72Piarco Int'l ()Crown Point () 17h10 AST 17h33 AST 0:23
19-12-2014 AT72Crown Point ()Piarco Int'l () 16h03 AST 16h29 AST 0:26
19-12-2014 AT72Piarco Int'l ()Crown Point () 15h01 AST 15h18 AST 0:17
19-12-2014 AT72Crown Point ()Piarco Int'l () 13h51 AST 14h11 AST 0:20
19-12-2014 AT72Piarco Int'l ()Crown Point () 12h48 AST 13h03 AST 0:14
19-12-2014 AT72Crown Point ()Piarco Int'l () 11h44 AST 12h04 AST 0:20
19-12-2014 AT72Piarco Int'l ()Crown Point () 10h29 AST 10h44 AST 0:14
19-12-2014 AT72Crown Point ()Piarco Int'l () 09h19 AST 09h38 AST 0:19
19-12-2014 AT72Piarco Int'l ()Crown Point () 08h27 AST 08h41 AST 0:13
19-12-2014 AT72Crown Point ()Piarco Int'l () 07h27 AST 07h46 AST 0:19
19-12-2014 AT72Piarco Int'l ()Crown Point () 06h18 AST 06h33 AST 0:14
18-12-2014 AT72Crown Point ()Piarco Int'l () 20h43 AST 21h07 AST 0:24
18-12-2014 AT72Piarco Int'l ()Crown Point () 19h45 AST 20h03 AST 0:17
18-12-2014 AT72Crown Point ()Piarco Int'l () 18h07 AST 18h29 AST 0:22
18-12-2014 AT72Piarco Int'l ()Crown Point () 17h05 AST 17h29 AST 0:24
18-12-2014 AT72Crown Point ()Piarco Int'l () 16h01 AST 16h21 AST 0:20
18-12-2014 AT72Piarco Int'l ()Crown Point () 14h57 AST 15h13 AST 0:15
18-12-2014 AT72Crown Point ()Piarco Int'l () 13h27 AST 13h45 AST 0:18
18-12-2014 AT72Piarco Int'l ()Crown Point () 12h31 AST 12h48 AST 0:16
18-12-2014 AT72Piarco Int'l ()Crown Point () 08h30 AST 08h44 AST 0:13
18-12-2014 AT72Crown Point ()Piarco Int'l () 07h05 AST 07h22 AST 0:17
18-12-2014 AT72Piarco Int'l ()Crown Point () 06h13 AST 06h29 AST 0:15
17-12-2014 AT72Int'l Grantley-Adams ()Piarco Int'l () 21h17 AST 22h10 AST 0:52
17-12-2014 AT72Piarco Int'l ()Int'l Grantley-Adams () 19h31 AST 20h23 AST 0:51
17-12-2014 AT72Crown Point ()Piarco Int'l () 16h53 AST 17h12 AST 0:19
17-12-2014 AT72Piarco Int'l ()Crown Point () 16h02 AST 16h16 AST 0:13
17-12-2014 AT72Crown Point ()Piarco Int'l () 14h48 AST 15h08 AST 0:20
17-12-2014 AT72Piarco Int'l ()Crown Point () 13h54 AST 14h09 AST 0:14
16-12-2014 AT72Int'l Grantley-Adams ()Piarco Int'l () 21h03 AST 21h57 AST 0:53
16-12-2014 AT72Piarco Int'l ()Int'l Grantley-Adams () 19h23 AST 20h15 AST 0:52
16-12-2014 AT72Crown Point ()Piarco Int'l () 16h22 AST 16h44 AST 0:22
16-12-2014 AT72Piarco Int'l ()Crown Point () 15h29 AST 15h43 AST 0:13
16-12-2014 AT72Crown Point ()Piarco Int'l () 14h31 AST 14h51 AST 0:20
16-12-2014 AT72Piarco Int'l ()Crown Point () 13h33 AST 13h48 AST 0:14
16-12-2014 AT72Crown Point ()Piarco Int'l () 10h25 AST 10h47 AST 0:22
16-12-2014 AT72Piarco Int'l ()Crown Point () 09h28 AST 09h43 AST 0:14
16-12-2014 AT72Point Salines Int'l ()Piarco Int'l () 07h59 AST 08h33 AST 0:34
16-12-2014 AT72Piarco Int'l ()Point Salines Int'l () 06h41 AST 07h14 AST 0:32
16-12-2014 AT72Crown Point ()Piarco Int'l () 02h02 AST 02h15 AST 0:13
16-12-2014 AT72Piarco Int'l ()Crown Point () 01h00 AST 01h16 AST 0:15
15-12-2014 AT72Crown Point ()Piarco Int'l () 23h56 AST 00h14 AST (+1) 0:18
15-12-2014 AT72Piarco Int'l ()Crown Point () 22h59 AST 23h17 AST 0:17
15-12-2014 AT72Crown Point ()Piarco Int'l () 21h57 AST 22h15 AST 0:18
15-12-2014 AT72Piarco Int'l ()Crown Point () 20h55 AST 21h13 AST 0:18
Les membres inscrits (l'inscription est gratuite et facile!) voient 4 months d'historique. S'inscrire